Time,TemperatureF,DewpointF,PressureIn,WindDirection,WindDirectionDegrees,WindSpeedMPH,WindSpeedGustMPH,Humidity,HourlyPrecipIn,Conditions,Clouds,dailyrainin,SoftwareType,DateUTC
2014-11-22 00:05:00,48.3,46.4,29.84,NNW,343,2.0,2.0,93,0.05,,,0.00,Wunderground v.1.15,2014-11-22 08:05:00,
2014-11-22 00:11:00,47.8,46.2,29.84,NW,314,1.0,2.0,94,0.04,,,0.00,Wunderground v.1.15,2014-11-22 08:11:00,
2014-11-22 00:17:00,47.4,46.0,29.84,West,274,1.0,2.0,95,0.00,,,0.01,Wunderground v.1.15,2014-11-22 08:17:00,
2014-11-22 00:23:00,47.3,46.2,29.84,WSW,252,0.0,1.0,96,0.09,,,0.02,Wunderground v.1.15,2014-11-22 08:23:00,
2014-11-22 00:28:00,47.3,46.2,29.84,NNW,332,0.0,2.0,96,0.09,,,0.02,Wunderground v.1.15,2014-11-22 08:28:00,
2014-11-22 00:34:00,47.2,46.1,29.84,WNW,293,0.0,2.0,96,0.09,,,0.03,Wunderground v.1.15,2014-11-22 08:34:00,
2014-11-22 00:40:00,47.1,46.3,29.84,North,349,3.0,3.0,97,0.07,,,0.04,Wunderground v.1.15,2014-11-22 08:40:00,
2014-11-22 00:46:00,47.0,46.2,29.84,North,358,2.0,3.0,97,0.12,,,0.05,Wunderground v.1.15,2014-11-22 08:46:00,
2014-11-22 00:51:00,46.9,46.1,29.85,NNE,18,0.0,2.0,97,0.08,,,0.05,Wunderground v.1.15,2014-11-22 08:51:00,
2014-11-22 00:57:00,46.9,46.1,29.85,NNW,343,3.0,3.0,97,0.04,,,0.05,Wunderground v.1.15,2014-11-22 08:57:00,
2014-11-22 01:03:00,47.0,46.5,29.85,NW,326,2.0,3.0,98,0.04,,,0.06,Wunderground v.1.15,2014-11-22 09:03:00,
2014-11-22 01:09:00,46.9,46.4,29.85,North,1,1.0,3.0,98,0.04,,,0.06,Wunderground v.1.15,2014-11-22 09:09:00,
2014-11-22 01:15:00,46.9,46.4,29.84,NNW,335,2.0,2.0,98,0.04,,,0.07,Wunderground v.1.15,2014-11-22 09:15:00,
2014-11-22 01:21:00,47.0,46.5,29.85,NNW,347,0.0,1.0,98,0.04,,,0.07,Wunderground v.1.15,2014-11-22 09:21:00,
2014-11-22 01:27:00,46.9,46.4,29.83,NNE,23,3.0,3.0,98,0.04,,,0.07,Wunderground v.1.15,2014-11-22 09:27:00,
2014-11-22 01:32:00,46.8,46.3,29.83,NNW,335,2.0,3.0,98,0.00,,,0.07,Wunderground v.1.15,2014-11-22 09:32:00,
2014-11-22 01:38:00,46.7,46.2,29.83,North,359,4.0,4.0,98,0.00,,,0.07,Wunderground v.1.15,2014-11-22 09:38:00,
2014-11-22 01:44:00,46.7,46.2,29.84,NW,315,4.0,5.0,98,0.00,,,0.07,Wunderground v.1.15,2014-11-22 09:44:00,
2014-11-22 01:50:00,46.5,46.0,29.86,WNW,282,3.0,4.0,98,0.00,,,0.08,Wunderground v.1.15,2014-11-22 09:50:00,
2014-11-22 01:55:00,46.7,46.4,29.85,WNW,292,0.0,4.0,99,0.00,,,0.08,Wunderground v.1.15,2014-11-22 09:55:00,
2014-11-22 02:00:00,46.8,46.5,29.85,WNW,292,0.0,1.0,99,0.05,,,0.09,Wunderground v.1.15,2014-11-22 10:00:00,
2014-11-22 02:05:00,46.9,46.6,29.85,WNW,292,0.0,1.0,99,0.05,,,0.09,Wunderground v.1.15,2014-11-22 10:05:00,
2014-11-22 02:10:00,46.8,46.5,29.85,WNW,293,0.0,0.0,99,0.05,,,0.09,Wunderground v.1.15,2014-11-22 10:10:00,
2014-11-22 02:15:00,46.7,46.4,29.85,North,349,2.0,2.0,99,0.04,,,0.09,Wunderground v.1.15,2014-11-22 10:15:00,
2014-11-22 02:20:00,46.8,46.5,29.85,North,5,3.0,3.0,99,0.00,,,0.09,Wunderground v.1.15,2014-11-22 10:20:00,
2014-11-22 02:25:00,46.9,46.6,29.86,NNW,344,0.0,4.0,99,0.00,,,0.09,Wunderground v.1.15,2014-11-22 10:25:00,
2014-11-22 02:30:00,46.8,46.5,29.86,NNW,345,0.0,1.0,99,0.00,,,0.09,Wunderground v.1.15,2014-11-22 10:30:00,
2014-11-22 02:35:00,46.9,46.6,29.86,NNW,345,0.0,1.0,99,0.00,,,0.09,Wunderground v.1.15,2014-11-22 10:35:00,
2014-11-22 02:40:00,46.8,46.5,29.86,NNW,345,0.0,0.0,99,0.00,,,0.09,Wunderground v.1.15,2014-11-22 10:40:00,
2014-11-22 02:45:00,46.8,46.5,29.86,NNE,23,0.0,0.0,99,0.00,,,0.09,Wunderground v.1.15,2014-11-22 10:45:00,
2014-11-22 02:50:00,46.8,46.5,29.85,NNE,28,0.0,0.0,99,0.00,,,0.09,Wunderground v.1.15,2014-11-22 10:50:00,
2014-11-22 02:55:00,46.7,46.4,29.85,NNE,29,0.0,1.0,99,0.00,,,0.09,Wunderground v.1.15,2014-11-22 10:55:00,
2014-11-22 03:00:00,46.6,46.3,29.85,NNE,28,0.0,0.0,99,0.00,,,0.09,Wunderground v.1.15,2014-11-22 11:00:00,
2014-11-22 03:05:00,46.5,46.2,29.85,NNE,28,0.0,0.0,99,0.00,,,0.10,Wunderground v.1.15,2014-11-22 11:05:00,
2014-11-22 03:10:00,46.5,46.2,29.85,NNE,28,0.0,0.0,99,0.00,,,0.10,Wunderground v.1.15,2014-11-22 11:10:00,
2014-11-22 03:15:00,46.6,46.3,29.86,NNE,22,1.0,2.0,99,0.00,,,0.10,Wunderground v.1.15,2014-11-22 11:15:00,
2014-11-22 03:20:00,46.6,46.3,29.86,NNE,22,0.0,1.0,99,0.00,,,0.10,Wunderground v.1.15,2014-11-22 11:20:00,
2014-11-22 03:25:00,46.7,46.4,29.85,NNE,18,0.0,1.0,99,0.00,,,0.11,Wunderground v.1.15,2014-11-22 11:25:00,
2014-11-22 03:30:00,46.7,46.4,29.86,NNW,348,0.0,1.0,99,0.00,,,0.11,Wunderground v.1.15,2014-11-22 11:30:00,
2014-11-22 03:35:00,46.5,46.2,29.86,NNW,348,0.0,1.0,99,0.00,,,0.11,Wunderground v.1.15,2014-11-22 11:35:00,
2014-11-22 03:40:00,46.4,46.1,29.86,NNW,348,0.0,0.0,99,0.00,,,0.11,Wunderground v.1.15,2014-11-22 11:40:00,
2014-11-22 03:45:00,46.2,45.9,29.86,ESE,110,2.0,2.0,99,0.00,,,0.11,Wunderground v.1.15,2014-11-22 11:45:00,
2014-11-22 03:50:00,45.9,45.6,29.86,ESE,113,0.0,0.0,99,0.00,,,0.11,Wunderground v.1.15,2014-11-22 11:50:00,
2014-11-22 03:55:00,46.1,45.8,29.86,ESE,113,0.0,1.0,99,0.00,,,0.11,Wunderground v.1.15,2014-11-22 11:55:00,
2014-11-22 04:00:00,46.1,45.8,29.86,ESE,113,0.0,0.0,99,0.00,,,0.11,Wunderground v.1.15,2014-11-22 12:00:00,
2014-11-22 04:05:00,45.9,45.6,29.86,ESE,113,0.0,0.0,99,0.00,,,0.11,Wunderground v.1.15,2014-11-22 12:05:00,
2014-11-22 04:10:00,45.9,45.6,29.86,ESE,113,0.0,0.0,99,0.00,,,0.11,Wunderground v.1.15,2014-11-22 12:10:00,
2014-11-22 04:15:00,46.0,45.7,29.87,ESE,111,0.0,0.0,99,0.00,,,0.11,Wunderground v.1.15,2014-11-22 12:15:00,
2014-11-22 04:20:00,46.0,45.7,29.87,ESE,112,0.0,0.0,99,0.00,,,0.12,Wunderground v.1.15,2014-11-22 12:20:00,
2014-11-22 04:25:00,45.9,45.6,29.87,ESE,111,0.0,0.0,99,0.15,,,0.13,Wunderground v.1.15,2014-11-22 12:25:00,
2014-11-22 04:30:00,46.0,45.7,29.87,ESE,115,4.0,4.0,99,0.07,,,0.13,Wunderground v.1.15,2014-11-22 12:30:00,
2014-11-22 04:35:00,45.9,45.6,29.86,ESE,115,3.0,5.0,99,0.05,,,0.13,Wunderground v.1.15,2014-11-22 12:35:00,
2014-11-22 04:40:00,45.7,45.4,29.87,South,173,1.0,3.0,99,0.00,,,0.13,Wunderground v.1.15,2014-11-22 12:40:00,
2014-11-22 04:45:00,45.9,45.6,29.87,SE,131,0.0,3.0,99,0.00,,,0.13,Wunderground v.1.15,2014-11-22 12:45:00,
2014-11-22 04:50:00,45.5,45.2,29.88,NW,321,2.0,2.0,99,0.00,,,0.13,Wunderground v.1.15,2014-11-22 12:50:00,
2014-11-22 04:55:00,44.7,44.2,29.88,NNE,22,3.0,3.0,98,0.00,,,0.13,Wunderground v.1.15,2014-11-22 12:55:00,
2014-11-22 05:00:00,44.4,44.1,29.87,WNW,285,0.0,2.0,99,0.00,,,0.13,Wunderground v.1.15,2014-11-22 13:00:00,
2014-11-22 05:05:00,44.4,44.1,29.87,NE,49,0.0,2.0,99,0.00,,,0.13,Wunderground v.1.15,2014-11-22 13:05:00,
2014-11-22 05:10:00,44.4,44.1,29.88,NW,320,3.0,3.0,99,0.00,,,0.13,Wunderground v.1.15,2014-11-22 13:10:00,
2014-11-22 05:15:00,44.3,44.0,29.88,SSE,152,3.0,4.0,99,0.00,,,0.13,Wunderground v.1.15,2014-11-22 13:15:00,
2014-11-22 05:20:00,44.6,44.6,29.89,North,356,0.0,2.0,100,0.00,,,0.13,Wunderground v.1.15,2014-11-22 13:20:00,
2014-11-22 05:25:00,44.9,44.9,29.88,NNE,18,3.0,3.0,100,0.00,,,0.13,Wunderground v.1.15,2014-11-22 13:25:00,
2014-11-22 05:30:00,45.2,45.2,29.89,NNE,12,3.0,4.0,100,0.00,,,0.14,Wunderground v.1.15,2014-11-22 13:30:00,
2014-11-22 05:35:00,45.5,45.5,29.89,North,1,4.0,6.0,100,0.09,,,0.15,Wunderground v.1.15,2014-11-22 13:35:00,
2014-11-22 05:40:00,45.8,45.8,29.90,NW,317,2.0,4.0,100,0.14,,,0.16,Wunderground v.1.15,2014-11-22 13:40:00,
2014-11-22 05:45:00,45.9,45.9,29.90,NW,306,0.0,4.0,100,0.16,,,0.18,Wunderground v.1.15,2014-11-22 13:45:00,
2014-11-22 05:50:00,45.9,45.9,29.90,ESE,116,5.0,6.0,100,0.10,,,0.19,Wunderground v.1.15,2014-11-22 13:50:00,
2014-11-22 05:55:00,46.0,46.0,29.90,SE,125,2.0,7.0,100,0.10,,,0.19,Wunderground v.1.15,2014-11-22 13:55:00,
2014-11-22 06:00:00,46.2,46.2,29.90,SE,134,3.0,4.0,100,0.06,,,0.19,Wunderground v.1.15,2014-11-22 14:00:00,
2014-11-22 06:05:00,46.4,46.4,29.89,ESE,113,5.0,6.0,100,0.04,,,0.19,Wunderground v.1.15,2014-11-22 14:05:00,
2014-11-22 06:10:00,46.6,46.6,29.89,SE,127,7.0,7.0,100,0.00,,,0.19,Wunderground v.1.15,2014-11-22 14:10:00,
2014-11-22 06:15:00,46.7,46.7,29.89,SE,136,5.0,8.0,100,0.00,,,0.20,Wunderground v.1.15,2014-11-22 14:15:00,
2014-11-22 06:20:00,46.9,46.9,29.89,SE,135,5.0,6.0,100,0.00,,,0.20,Wunderground v.1.15,2014-11-22 14:20:00,
2014-11-22 06:25:00,47.1,47.1,29.89,SSE,153,3.0,6.0,100,0.00,,,0.20,Wunderground v.1.15,2014-11-22 14:25:00,
2014-11-22 06:30:00,46.9,46.6,29.89,SW,229,1.0,3.0,99,0.00,,,0.20,Wunderground v.1.15,2014-11-22 14:30:00,
2014-11-22 06:35:00,46.7,46.2,29.89,NW,321,1.0,3.0,98,0.00,,,0.20,Wunderground v.1.15,2014-11-22 14:35:00,
2014-11-22 06:40:00,46.3,45.8,29.89,NW,321,7.0,7.0,98,0.00,,,0.20,Wunderground v.1.15,2014-11-22 14:40:00,
2014-11-22 06:45:00,46.5,46.0,29.90,WNW,288,3.0,9.0,98,0.00,,,0.20,Wunderground v.1.15,2014-11-22 14:45:00,
2014-11-22 06:50:00,46.2,45.7,29.91,NW,320,3.0,4.0,98,0.00,,,0.20,Wunderground v.1.15,2014-11-22 14:50:00,
2014-11-22 06:55:00,45.8,45.3,29.91,NW,313,0.0,4.0,98,0.00,,,0.21,Wunderground v.1.15,2014-11-22 14:55:00,
2014-11-22 07:00:00,45.7,45.2,29.91,NW,313,0.0,2.0,98,0.18,,,0.22,Wunderground v.1.15,2014-11-22 15:00:00,
2014-11-22 07:05:00,45.7,45.2,29.91,NW,314,1.0,2.0,98,0.07,,,0.22,Wunderground v.1.15,2014-11-22 15:05:00,
2014-11-22 07:10:00,45.7,45.2,29.91,SE,132,2.0,2.0,98,0.04,,,0.22,Wunderground v.1.15,2014-11-22 15:10:00,
2014-11-22 07:15:00,45.3,44.8,29.91,SE,131,2.0,4.0,98,0.00,,,0.22,Wunderground v.1.15,2014-11-22 15:15:00,
2014-11-22 07:20:00,45.3,44.8,29.91,SE,127,4.0,5.0,98,0.00,,,0.22,Wunderground v.1.15,2014-11-22 15:20:00,
2014-11-22 07:25:00,45.4,45.1,29.91,ESE,107,5.0,5.0,99,0.00,,,0.22,Wunderground v.1.15,2014-11-22 15:25:00,
2014-11-22 07:30:00,45.4,45.1,29.91,SE,129,0.0,4.0,99,0.00,,,0.22,Wunderground v.1.15,2014-11-22 15:30:00,
2014-11-22 07:35:00,45.4,44.9,29.92,WNW,295,2.0,4.0,98,0.00,,,0.22,Wunderground v.1.15,2014-11-22 15:35:00,
2014-11-22 07:40:00,45.4,45.1,29.92,SW,228,2.0,2.0,99,0.00,,,0.22,Wunderground v.1.15,2014-11-22 15:40:00,
2014-11-22 07:45:00,45.3,44.8,29.92,NNW,333,2.0,4.0,98,0.00,,,0.22,Wunderground v.1.15,2014-11-22 15:45:00,
2014-11-22 07:50:00,45.1,44.6,29.92,NW,326,1.0,2.0,98,0.00,,,0.22,Wunderground v.1.15,2014-11-22 15:50:00,
2014-11-22 07:55:00,45.1,44.6,29.93,NW,314,0.0,2.0,98,0.00,,,0.22,Wunderground v.1.15,2014-11-22 15:55:00,
2014-11-22 08:00:00,45.1,44.6,29.93,NW,314,0.0,1.0,98,0.00,,,0.23,Wunderground v.1.15,2014-11-22 16:00:00,
2014-11-22 08:05:00,45.2,44.9,29.93,NW,313,0.0,1.0,99,0.00,,,0.23,Wunderground v.1.15,2014-11-22 16:05:00,
2014-11-22 08:10:00,45.3,45.0,29.93,North,358,0.0,0.0,99,0.00,,,0.23,Wunderground v.1.15,2014-11-22 16:10:00,
2014-11-22 08:15:00,45.6,45.3,29.94,NNW,345,6.0,6.0,99,0.00,,,0.23,Wunderground v.1.15,2014-11-22 16:15:00,
2014-11-22 08:20:00,46.1,45.8,29.94,West,259,1.0,6.0,99,0.00,,,0.23,Wunderground v.1.15,2014-11-22 16:20:00,
2014-11-22 08:25:00,46.8,46.3,29.94,SE,146,1.0,7.0,98,0.00,,,0.23,Wunderground v.1.15,2014-11-22 16:25:00,
2014-11-22 08:30:00,47.3,45.4,29.94,West,259,9.0,12.0,93,0.00,,,0.23,Wunderground v.1.15,2014-11-22 16:30:00,
2014-11-22 08:35:00,47.9,44.8,29.94,WSW,257,2.0,14.0,89,0.00,,,0.23,Wunderground v.1.15,2014-11-22 16:35:00,
2014-11-22 08:40:00,48.3,45.8,29.95,South,183,4.0,6.0,91,0.00,,,0.23,Wunderground v.1.15,2014-11-22 16:40:00,
2014-11-22 08:45:00,48.7,45.3,29.95,West,270,3.0,9.0,88,0.00,,,0.23,Wunderground v.1.15,2014-11-22 16:45:00,
2014-11-22 08:50:00,49.6,45.0,29.96,WNW,288,1.0,4.0,84,0.00,,,0.23,Wunderground v.1.15,2014-11-22 16:50:00,
2014-11-22 08:55:00,49.8,42.5,29.97,WNW,285,16.0,16.0,76,0.00,,,0.23,Wunderground v.1.15,2014-11-22 16:55:00,
2014-11-22 09:00:00,49.6,42.0,29.97,West,281,9.0,13.0,75,0.00,,,0.23,Wunderground v.1.15,2014-11-22 17:00:00,
2014-11-22 09:05:00,49.2,42.0,29.97,West,276,11.0,20.0,76,0.00,,,0.23,Wunderground v.1.15,2014-11-22 17:05:00,
2014-11-22 09:10:00,48.8,41.6,29.97,NW,309,10.0,12.0,76,0.00,,,0.23,Wunderground v.1.15,2014-11-22 17:10:00,
2014-11-22 09:15:00,48.6,41.4,29.98,WNW,300,9.0,17.0,76,0.00,,,0.23,Wunderground v.1.15,2014-11-22 17:15:00,
2014-11-22 09:20:00,49.2,39.5,29.98,WNW,285,12.0,14.0,69,0.00,,,0.23,Wunderground v.1.15,2014-11-22 17:20:00,
2014-11-22 09:25:00,49.2,40.2,29.98,SW,235,6.0,15.0,71,0.00,,,0.23,Wunderground v.1.15,2014-11-22 17:25:00,
2014-11-22 09:30:00,49.1,41.9,29.98,NE,49,6.0,7.0,76,0.00,,,0.23,Wunderground v.1.15,2014-11-22 17:30:00,
2014-11-22 09:35:00,50.3,42.3,29.99,ESE,105,6.0,20.0,74,0.00,,,0.23,Wunderground v.1.15,2014-11-22 17:35:00,
2014-11-22 09:40:00,51.1,44.5,29.99,WNW,288,4.0,5.0,78,0.00,,,0.23,Wunderground v.1.15,2014-11-22 17:40:00,
2014-11-22 09:45:00,51.3,41.8,29.99,NW,307,9.0,9.0,70,0.00,,,0.23,Wunderground v.1.15,2014-11-22 17:45:00,
2014-11-22 09:50:00,51.3,40.7,30.00,West,278,8.0,9.0,67,0.00,,,0.23,Wunderground v.1.15,2014-11-22 17:50:00,
2014-11-22 09:55:00,51.0,40.0,30.00,West,278,13.0,18.0,66,0.00,,,0.23,Wunderground v.1.15,2014-11-22 17:55:00,
2014-11-22 10:00:00,50.4,40.2,30.00,West,263,7.0,10.0,68,0.00,,,0.23,Wunderground v.1.15,2014-11-22 18:00:00,
2014-11-22 10:05:00,49.9,40.9,30.00,SW,233,6.0,11.0,71,0.00,,,0.23,Wunderground v.1.15,2014-11-22 18:05:00,
2014-11-22 10:10:00,49.9,41.9,30.00,SW,233,13.0,13.0,74,0.00,,,0.23,Wunderground v.1.15,2014-11-22 18:10:00,
2014-11-22 10:15:00,50.0,40.6,30.00,WSW,252,11.0,13.0,70,0.00,,,0.23,Wunderground v.1.15,2014-11-22 18:15:00,
2014-11-22 10:20:00,50.5,41.8,30.01,WSW,245,12.0,14.0,72,0.00,,,0.23,Wunderground v.1.15,2014-11-22 18:20:00,
2014-11-22 10:25:00,50.9,41.8,30.01,WSW,249,10.0,14.0,71,0.00,,,0.23,Wunderground v.1.15,2014-11-22 18:25:00,
2014-11-22 10:30:00,50.8,41.0,30.01,WSW,240,14.0,15.0,69,0.00,,,0.23,Wunderground v.1.15,2014-11-22 18:30:00,
2014-11-22 10:35:00,51.0,40.4,30.02,WSW,257,9.0,16.0,67,0.00,,,0.23,Wunderground v.1.15,2014-11-22 18:35:00,
2014-11-22 10:40:00,51.1,40.1,30.02,WSW,249,10.0,10.0,66,0.00,,,0.23,Wunderground v.1.15,2014-11-22 18:40:00,
2014-11-22 10:45:00,51.5,40.5,30.03,WSW,253,12.0,19.0,66,0.00,,,0.23,Wunderground v.1.15,2014-11-22 18:45:00,
2014-11-22 10:50:00,51.6,41.4,30.03,SW,236,9.0,12.0,68,0.00,,,0.23,Wunderground v.1.15,2014-11-22 18:50:00,
2014-11-22 10:55:00,51.6,41.0,30.04,West,266,12.0,17.0,67,0.00,,,0.23,Wunderground v.1.15,2014-11-22 18:55:00,
2014-11-22 11:00:00,52.1,42.2,30.04,WSW,255,11.0,17.0,69,0.00,,,0.23,Wunderground v.1.15,2014-11-22 19:00:00,
2014-11-22 11:05:00,51.7,39.5,30.05,WSW,245,14.0,17.0,63,0.00,,,0.23,Wunderground v.1.15,2014-11-22 19:05:00,
2014-11-22 11:10:00,51.7,38.3,30.05,West,278,18.0,22.0,60,0.00,,,0.23,Wunderground v.1.15,2014-11-22 19:10:00,
2014-11-22 11:15:00,52.0,41.4,30.05,WNW,298,8.0,22.0,67,0.00,,,0.23,Wunderground v.1.15,2014-11-22 19:15:00,
2014-11-22 11:20:00,51.8,41.9,30.05,NW,305,9.0,13.0,69,0.00,,,0.23,Wunderground v.1.15,2014-11-22 19:20:00,
2014-11-22 11:25:00,50.4,41.7,30.06,NW,315,8.0,14.0,72,0.00,,,0.23,Wunderground v.1.15,2014-11-22 19:25:00,
2014-11-22 11:30:00,49.7,40.3,30.06,NNW,335,12.0,15.0,70,0.00,,,0.23,Wunderground v.1.15,2014-11-22 19:30:00,
2014-11-22 11:35:00,48.7,40.4,30.06,NW,315,14.0,19.0,73,0.00,,,0.23,Wunderground v.1.15,2014-11-22 19:35:00,
2014-11-22 11:40:00,47.9,40.0,30.06,NW,321,9.0,12.0,74,0.00,,,0.23,Wunderground v.1.15,2014-11-22 19:40:00,
2014-11-22 11:45:00,47.8,40.9,30.06,NW,325,7.0,13.0,77,0.00,,,0.23,Wunderground v.1.15,2014-11-22 19:45:00,
2014-11-22 11:50:00,48.3,41.4,30.06,NNW,339,13.0,14.0,77,0.00,,,0.23,Wunderground v.1.15,2014-11-22 19:50:00,
2014-11-22 11:55:00,48.6,41.4,30.06,NW,325,9.0,16.0,76,0.00,,,0.23,Wunderground v.1.15,2014-11-22 19:55:00,
2014-11-22 12:00:00,49.1,40.5,30.06,NNW,335,6.0,9.0,72,0.00,,,0.23,Wunderground v.1.15,2014-11-22 20:00:00,
2014-11-22 12:05:00,49.4,40.4,30.06,NW,321,5.0,9.0,71,0.00,,,0.23,Wunderground v.1.15,2014-11-22 20:05:00,
2014-11-22 12:10:00,49.9,41.2,30.06,West,269,4.0,6.0,72,0.00,,,0.23,Wunderground v.1.15,2014-11-22 20:10:00,
2014-11-22 12:15:00,49.8,40.4,30.06,WSW,240,4.0,7.0,70,0.00,,,0.23,Wunderground v.1.15,2014-11-22 20:15:00,
2014-11-22 12:20:00,50.0,39.8,30.06,SW,222,11.0,15.0,68,0.00,,,0.23,Wunderground v.1.15,2014-11-22 20:20:00,
2014-11-22 12:25:00,49.4,40.4,30.06,SSW,205,8.0,15.0,71,0.00,,,0.23,Wunderground v.1.15,2014-11-22 20:25:00,
2014-11-22 12:30:00,49.1,41.9,30.07,SSW,199,12.0,12.0,76,0.00,,,0.23,Wunderground v.1.15,2014-11-22 20:30:00,
2014-11-22 12:35:00,49.2,41.6,30.06,SW,215,5.0,12.0,75,0.00,,,0.23,Wunderground v.1.15,2014-11-22 20:35:00,
2014-11-22 12:40:00,49.4,41.1,30.07,SSE,162,9.0,13.0,73,0.00,,,0.23,Wunderground v.1.15,2014-11-22 20:40:00,
2014-11-22 12:45:00,49.5,41.2,30.07,SSW,205,8.0,13.0,73,0.00,,,0.23,Wunderground v.1.15,2014-11-22 20:45:00,
2014-11-22 12:50:00,49.7,42.1,30.06,SSE,149,13.0,15.0,75,0.00,,,0.23,Wunderground v.1.15,2014-11-22 20:50:00,
2014-11-22 12:55:00,49.5,41.2,30.07,SSE,153,7.0,15.0,73,0.00,,,0.23,Wunderground v.1.15,2014-11-22 20:55:00,
2014-11-22 13:00:00,49.6,40.9,30.07,South,174,11.0,12.0,72,0.00,,,0.23,Wunderground v.1.15,2014-11-22 21:00:00,
2014-11-22 13:05:00,49.6,41.7,30.07,South,169,7.0,12.0,74,0.00,,,0.23,Wunderground v.1.15,2014-11-22 21:05:00,
2014-11-22 13:10:00,49.7,41.0,30.07,South,188,10.0,11.0,72,0.00,,,0.23,Wunderground v.1.15,2014-11-22 21:10:00,
2014-11-22 13:15:00,49.4,41.5,30.07,SSE,165,7.0,11.0,74,0.00,,,0.23,Wunderground v.1.15,2014-11-22 21:15:00,
2014-11-22 13:20:00,49.1,40.8,30.08,SE,132,6.0,7.0,73,0.00,,,0.23,Wunderground v.1.15,2014-11-22 21:20:00,
2014-11-22 13:25:00,49.0,41.1,30.08,SE,139,5.0,7.0,74,0.00,,,0.23,Wunderground v.1.15,2014-11-22 21:25:00,
2014-11-22 13:30:00,49.1,41.2,30.08,SE,146,4.0,6.0,74,0.00,,,0.23,Wunderground v.1.15,2014-11-22 21:30:00,
2014-11-22 13:35:00,49.2,39.8,30.09,South,169,2.0,6.0,70,0.00,,,0.23,Wunderground v.1.15,2014-11-22 21:35:00,
2014-11-22 13:40:00,49.3,39.6,30.09,ESE,103,7.0,7.0,69,0.00,,,0.23,Wunderground v.1.15,2014-11-22 21:40:00,
2014-11-22 13:45:00,49.1,41.5,30.10,SE,135,1.0,10.0,75,0.00,,,0.24,Wunderground v.1.15,2014-11-22 21:45:00,
2014-11-22 13:50:00,48.6,41.7,30.10,South,187,3.0,6.0,77,0.00,,,0.24,Wunderground v.1.15,2014-11-22 21:50:00,
2014-11-22 13:55:00,48.5,41.3,30.10,NNW,339,2.0,6.0,76,0.00,,,0.24,Wunderground v.1.15,2014-11-22 21:55:00,
2014-11-22 14:00:00,48.5,39.9,30.11,NNE,22,0.0,3.0,72,0.00,,,0.24,Wunderground v.1.15,2014-11-22 22:00:00,
2014-11-22 14:05:00,48.8,39.4,30.11,NNW,327,6.0,8.0,70,0.00,,,0.24,Wunderground v.1.15,2014-11-22 22:05:00,
2014-11-22 14:10:00,49.1,40.5,30.11,NW,318,3.0,6.0,72,0.00,,,0.24,Wunderground v.1.15,2014-11-22 22:10:00,
2014-11-22 14:15:00,49.3,39.6,30.11,WSW,239,4.0,7.0,69,0.00,,,0.24,Wunderground v.1.15,2014-11-22 22:15:00,
2014-11-22 14:20:00,49.5,40.8,30.11,WNW,290,4.0,6.0,72,0.00,,,0.24,Wunderground v.1.15,2014-11-22 22:20:00,
2014-11-22 14:25:00,49.7,41.0,30.11,WSW,241,6.0,7.0,72,0.00,,,0.24,Wunderground v.1.15,2014-11-22 22:25:00,
2014-11-22 14:30:00,49.8,40.8,30.11,SW,233,6.0,8.0,71,0.00,,,0.24,Wunderground v.1.15,2014-11-22 22:30:00,
2014-11-22 14:35:00,49.4,40.0,30.11,West,268,2.0,8.0,70,0.00,,,0.24,Wunderground v.1.15,2014-11-22 22:35:00,
2014-11-22 14:40:00,48.9,39.5,30.12,West,263,6.0,6.0,70,0.00,,,0.24,Wunderground v.1.15,2014-11-22 22:40:00,
2014-11-22 14:45:00,48.5,40.2,30.12,WSW,256,5.0,7.0,73,0.00,,,0.24,Wunderground v.1.15,2014-11-22 22:45:00,
2014-11-22 14:50:00,48.5,39.9,30.12,WSW,257,3.0,4.0,72,0.00,,,0.24,Wunderground v.1.15,2014-11-22 22:50:00,
2014-11-22 14:55:00,49.3,39.6,30.12,WSW,248,3.0,4.0,69,0.00,,,0.24,Wunderground v.1.15,2014-11-22 22:55:00,
2014-11-22 15:00:00,49.8,39.3,30.13,WSW,245,1.0,2.0,67,0.00,,,0.24,Wunderground v.1.15,2014-11-22 23:00:00,
2014-11-22 15:05:00,49.7,39.2,30.14,WNW,292,0.0,3.0,67,0.00,,,0.24,Wunderground v.1.15,2014-11-22 23:05:00,
2014-11-22 15:10:00,49.7,38.8,30.13,SW,225,0.0,1.0,66,0.00,,,0.24,Wunderground v.1.15,2014-11-22 23:10:00,
2014-11-22 15:15:00,49.7,38.4,30.13,WSW,239,0.0,1.0,65,0.00,,,0.24,Wunderground v.1.15,2014-11-22 23:15:00,
2014-11-22 15:20:00,49.5,38.2,30.13,West,277,0.0,1.0,65,0.00,,,0.24,Wunderground v.1.15,2014-11-22 23:20:00,
2014-11-22 15:25:00,49.3,39.2,30.14,West,276,1.0,1.0,68,0.00,,,0.24,Wunderground v.1.15,2014-11-22 23:25:00,
2014-11-22 15:30:00,49.0,38.1,30.14,West,278,1.0,1.0,66,0.00,,,0.24,Wunderground v.1.15,2014-11-22 23:30:00,
2014-11-22 15:35:00,48.8,36.8,30.14,West,280,1.0,3.0,63,0.00,,,0.24,Wunderground v.1.15,2014-11-22 23:35:00,
2014-11-22 15:40:00,48.9,38.8,30.14,NW,313,4.0,4.0,68,0.00,,,0.24,Wunderground v.1.15,2014-11-22 23:40:00,
2014-11-22 15:45:00,48.5,39.2,30.15,NW,313,5.0,6.0,70,0.00,,,0.24,Wunderground v.1.15,2014-11-22 23:45:00,
2014-11-22 15:50:00,48.1,38.8,30.15,WNW,298,5.0,8.0,70,0.00,,,0.24,Wunderground v.1.15,2014-11-22 23:50:00,
2014-11-22 15:55:00,48.1,38.4,30.15,NNE,16,0.0,8.0,69,0.00,,,0.24,Wunderground v.1.15,2014-11-22 23:55:00,
2014-11-22 16:00:00,47.9,40.0,30.15,SE,127,1.0,3.0,74,0.00,,,0.24,Wunderground v.1.15,2014-11-23 00:00:00,
2014-11-22 16:05:00,47.5,37.5,30.15,ENE,63,2.0,5.0,68,0.00,,,0.24,Wunderground v.1.15,2014-11-23 00:05:00,
2014-11-22 16:10:00,47.3,37.3,30.16,NNW,330,3.0,4.0,68,0.00,,,0.24,Wunderground v.1.15,2014-11-23 00:10:00,
2014-11-22 16:15:00,46.9,37.6,30.16,North,358,2.0,4.0,70,0.00,,,0.24,Wunderground v.1.15,2014-11-23 00:15:00,
2014-11-22 16:20:00,46.4,37.5,30.16,NE,48,1.0,2.0,71,0.00,,,0.24,Wunderground v.1.15,2014-11-23 00:20:00,
2014-11-22 16:25:00,45.8,38.0,30.16,NW,307,2.0,4.0,74,0.00,,,0.24,Wunderground v.1.15,2014-11-23 00:25:00,
2014-11-22 16:30:00,45.0,37.6,30.16,NW,309,3.0,3.0,75,0.00,,,0.24,Wunderground v.1.15,2014-11-23 00:30:00,
2014-11-22 16:35:00,44.7,37.6,30.17,NW,318,0.0,4.0,76,0.00,,,0.24,Wunderground v.1.15,2014-11-23 00:35:00,
2014-11-22 16:40:00,44.3,37.5,30.17,ESE,106,2.0,2.0,77,0.00,,,0.24,Wunderground v.1.15,2014-11-23 00:40:00,
2014-11-22 16:45:00,43.4,37.3,30.17,SE,124,3.0,4.0,79,0.00,,,0.24,Wunderground v.1.15,2014-11-23 00:45:00,
2014-11-22 16:51:00,42.6,37.2,30.18,East,86,2.0,3.0,81,0.00,,,0.24,Wunderground v.1.15,2014-11-23 00:51:00,
2014-11-22 16:56:00,42.1,37.3,30.18,East,101,3.0,3.0,83,0.00,,,0.24,Wunderground v.1.15,2014-11-23 00:56:00,